sensor_id;sensor_type;location;lat;lon;timestamp;pressure;altitude;pressure_sealevel;temperature;humidity
8069;BME280;4077;43.702;24.896;2023-02-19T00:01:42;99505.03;;;9.48;77.17
8069;BME280;4077;43.702;24.896;2023-02-19T00:04:12;99499.88;;;9.48;76.10
8069;BME280;4077;43.702;24.896;2023-02-19T00:06:39;99512.03;;;9.58;75.06
8069;BME280;4077;43.702;24.896;2023-02-19T00:09:04;99512.09;;;9.61;74.19
8069;BME280;4077;43.702;24.896;2023-02-19T00:11:32;99484.53;;;9.57;73.31
8069;BME280;4077;43.702;24.896;2023-02-19T00:14:00;99500.00;;;9.57;72.59
8069;BME280;4077;43.702;24.896;2023-02-19T00:16:28;99502.56;;;9.57;73.19
8069;BME280;4077;43.702;24.896;2023-02-19T00:18:55;99490.38;;;9.47;72.08
8069;BME280;4077;43.702;24.896;2023-02-19T00:21:21;99490.38;;;9.47;72.21
8069;BME280;4077;43.702;24.896;2023-02-19T00:23:54;99495.47;;;9.42;72.16
8069;BME280;4077;43.702;24.896;2023-02-19T00:26:20;99488.69;;;9.47;71.17
8069;BME280;4077;43.702;24.896;2023-02-19T00:28:47;99490.47;;;9.53;71.26
8069;BME280;4077;43.702;24.896;2023-02-19T00:33:47;99487.56;;;9.31;72.49
8069;BME280;4077;43.702;24.896;2023-02-19T00:36:13;99493.56;;;9.30;72.04
8069;BME280;4077;43.702;24.896;2023-02-19T00:38:40;99491.09;;;9.37;72.00
8069;BME280;4077;43.702;24.896;2023-02-19T00:41:06;99493.66;;;9.37;71.54
8069;BME280;4077;43.702;24.896;2023-02-19T00:44:00;99491.19;;;9.43;71.70
8069;BME280;4077;43.702;24.896;2023-02-19T00:48:51;99484.31;;;9.42;71.40
8069;BME280;4077;43.702;24.896;2023-02-19T00:51:18;99480.69;;;9.30;71.65
8069;BME280;4077;43.702;24.896;2023-02-19T00:53:43;99477.97;;;9.21;71.87
8069;BME280;4077;43.702;24.896;2023-02-19T00:56:09;99489.00;;;9.14;72.57
8069;BME280;4077;43.702;24.896;2023-02-19T00:58:35;99481.06;;;9.02;73.09
8069;BME280;4077;43.702;24.896;2023-02-19T01:01:00;99476.69;;;8.98;73.16
8069;BME280;4077;43.702;24.896;2023-02-19T01:03:26;99478.41;;;8.99;73.42
8069;BME280;4077;43.702;24.896;2023-02-19T01:05:51;99483.53;;;8.96;73.90
8069;BME280;4077;43.702;24.896;2023-02-19T01:08:18;99481.69;;;8.89;74.13
8069;BME280;4077;43.702;24.896;2023-02-19T01:10:43;99503.28;;;8.97;73.55
8069;BME280;4077;43.702;24.896;2023-02-19T01:13:09;99498.22;;;9.01;73.30
8069;BME280;4077;43.702;24.896;2023-02-19T01:15:35;99506.56;;;8.88;73.59
8069;BME280;4077;43.702;24.896;2023-02-19T01:18:00;99508.91;;;8.77;74.39
8069;BME280;4077;43.702;24.896;2023-02-19T01:20:26;99503.84;;;8.81;75.52
8069;BME280;4077;43.702;24.896;2023-02-19T01:22:52;99501.81;;;8.64;76.69
8069;BME280;4077;43.702;24.896;2023-02-19T01:25:18;99491.22;;;8.49;78.13
8069;BME280;4077;43.702;24.896;2023-02-19T01:27:43;99495.47;;;8.45;79.00
8069;BME280;4077;43.702;24.896;2023-02-19T01:30:09;99488.28;;;8.31;81.53
8069;BME280;4077;43.702;24.896;2023-02-19T01:32:35;99499.59;;;8.39;82.06
8069;BME280;4077;43.702;24.896;2023-02-19T01:35:00;99501.34;;;8.40;81.90
8069;BME280;4077;43.702;24.896;2023-02-19T01:37:25;99503.25;;;8.50;82.22
8069;BME280;4077;43.702;24.896;2023-02-19T01:39:51;99503.88;;;8.38;82.32
8069;BME280;4077;43.702;24.896;2023-02-19T01:42:16;99506.47;;;8.40;83.35
8069;BME280;4077;43.702;24.896;2023-02-19T01:47:07;99507.34;;;8.40;84.65
8069;BME280;4077;43.702;24.896;2023-02-19T01:49:52;99507.47;;;8.46;83.80
8069;BME280;4077;43.702;24.896;2023-02-19T01:52:31;99496.38;;;8.49;84.51
8069;BME280;4077;43.702;24.896;2023-02-19T01:55:00;99459.16;;;8.33;83.93
8069;BME280;4077;43.702;24.896;2023-02-19T01:57:30;99483.72;;;8.60;84.34
8069;BME280;4077;43.702;24.896;2023-02-19T02:00:03;99485.50;;;8.64;84.00
8069;BME280;4077;43.702;24.896;2023-02-19T02:02:30;99456.00;;;8.45;84.71
8069;BME280;4077;43.702;24.896;2023-02-19T02:04:56;99491.75;;;8.76;84.04
8069;BME280;4077;43.702;24.896;2023-02-19T02:07:24;99486.59;;;8.76;84.43
8069;BME280;4077;43.702;24.896;2023-02-19T02:10:08;99468.66;;;8.80;83.85
8069;BME280;4077;43.702;24.896;2023-02-19T02:12:51;99472.34;;;8.94;83.56
8069;BME280;4077;43.702;24.896;2023-02-19T02:15:22;99449.06;;;8.88;83.39
8069;BME280;4077;43.702;24.896;2023-02-19T02:23:34;99454.38;;;8.97;82.21
8069;BME280;4077;43.702;24.896;2023-02-19T02:26:13;99457.94;;;9.05;81.13
8069;BME280;4077;43.702;24.896;2023-02-19T02:31:25;99452.03;;;9.11;81.14
8069;BME280;4077;43.702;24.896;2023-02-19T02:34:00;99441.00;;;9.19;79.97
8069;BME280;4077;43.702;24.896;2023-02-19T02:36:38;99449.69;;;9.24;79.06
8069;BME280;4077;43.702;24.896;2023-02-19T02:39:08;99449.44;;;9.09;78.13
8069;BME280;4077;43.702;24.896;2023-02-19T02:41:48;99438.94;;;8.98;78.73
8069;BME280;4077;43.702;24.896;2023-02-19T02:44:39;99444.78;;;8.87;79.09
8069;BME280;4077;43.702;24.896;2023-02-19T02:47:05;99431.59;;;8.71;79.71
8069;BME280;4077;43.702;24.896;2023-02-19T02:49:32;99447.84;;;8.67;79.17
8069;BME280;4077;43.702;24.896;2023-02-19T02:52:18;99446.00;;;8.60;80.33
8069;BME280;4077;43.702;24.896;2023-02-19T02:55:07;99447.56;;;8.52;81.29
8069;BME280;4077;43.702;24.896;2023-02-19T02:57:35;99445.75;;;8.46;81.35
8069;BME280;4077;43.702;24.896;2023-02-19T03:00:00;99443.16;;;8.46;81.22
8069;BME280;4077;43.702;24.896;2023-02-19T03:02:28;99438.00;;;8.45;81.27
8069;BME280;4077;43.702;24.896;2023-02-19T03:10:40;99444.94;;;8.97;78.74
8069;BME280;4077;43.702;24.896;2023-02-19T03:13:34;99452.53;;;9.41;76.38
8069;BME280;4077;43.702;24.896;2023-02-19T03:16:30;99439.94;;;9.61;73.65
8069;BME280;4077;43.702;24.896;2023-02-19T03:19:18;99440.84;;;9.66;73.39
8069;BME280;4077;43.702;24.896;2023-02-19T03:22:05;99466.06;;;9.85;71.77
8069;BME280;4077;43.702;24.896;2023-02-19T03:24:40;99455.72;;;9.82;71.31
8069;BME280;4077;43.702;24.896;2023-02-19T03:27:27;99456.50;;;9.80;71.21
8069;BME280;4077;43.702;24.896;2023-02-19T03:29:57;99466.09;;;9.89;70.39
8069;BME280;4077;43.702;24.896;2023-02-19T03:32:53;99469.56;;;9.91;70.10
8069;BME280;4077;43.702;24.896;2023-02-19T03:35:20;99470.34;;;9.85;70.26
8069;BME280;4077;43.702;24.896;2023-02-19T03:38:04;99467.84;;;9.90;69.66
8069;BME280;4077;43.702;24.896;2023-02-19T03:40:35;99471.22;;;9.85;69.94
8069;BME280;4077;43.702;24.896;2023-02-19T03:43:20;99463.53;;;9.90;69.12
8069;BME280;4077;43.702;24.896;2023-02-19T03:45:57;99451.53;;;9.91;69.06
8069;BME280;4077;43.702;24.896;2023-02-19T03:48:33;99463.66;;;9.99;68.51
8069;BME280;4077;43.702;24.896;2023-02-19T03:51:29;99458.56;;;10.02;68.25
8069;BME280;4077;43.702;24.896;2023-02-19T03:54:21;99458.66;;;10.10;67.88
8069;BME280;4077;43.702;24.896;2023-02-19T03:59:40;99475.78;;;10.05;67.98
8069;BME280;4077;43.702;24.896;2023-02-19T04:02:08;99479.22;;;10.07;67.88
8069;BME280;4077;43.702;24.896;2023-02-19T04:04:44;99479.38;;;10.16;67.90
8069;BME280;4077;43.702;24.896;2023-02-19T04:07:13;99485.34;;;10.15;67.68
8069;BME280;4077;43.702;24.896;2023-02-19T04:09:43;99486.19;;;10.12;68.25
8069;BME280;4077;43.702;24.896;2023-02-19T04:12:11;99507.69;;;10.13;67.93
8069;BME280;4077;43.702;24.896;2023-02-19T04:15:01;99497.38;;;10.13;68.40
8069;BME280;4077;43.702;24.896;2023-02-19T04:17:30;99519.81;;;10.22;67.82
8069;BME280;4077;43.702;24.896;2023-02-19T04:19:58;99516.19;;;10.06;68.46
8069;BME280;4077;43.702;24.896;2023-02-19T04:22:26;99528.31;;;10.13;68.43
8069;BME280;4077;43.702;24.896;2023-02-19T04:24:53;99539.69;;;10.23;68.16
8069;BME280;4077;43.702;24.896;2023-02-19T04:27:20;99546.44;;;10.18;68.08
8069;BME280;4077;43.702;24.896;2023-02-19T04:29:45;99546.38;;;10.14;68.53
8069;BME280;4077;43.702;24.896;2023-02-19T04:32:12;99553.00;;;9.96;70.22
8069;BME280;4077;43.702;24.896;2023-02-19T04:34:38;99550.09;;;9.74;71.70
8069;BME280;4077;43.702;24.896;2023-02-19T04:37:04;99558.75;;;9.79;71.61
8069;BME280;4077;43.702;24.896;2023-02-19T04:39:30;99552.72;;;9.76;72.10
8069;BME280;4077;43.702;24.896;2023-02-19T04:41:56;99561.22;;;9.70;72.01
8069;BME280;4077;43.702;24.896;2023-02-19T04:44:21;99562.94;;;9.73;71.99
8069;BME280;4077;43.702;24.896;2023-02-19T04:46:47;99564.50;;;9.62;72.56
8069;BME280;4077;43.702;24.896;2023-02-19T04:49:12;99562.69;;;9.56;73.31
8069;BME280;4077;43.702;24.896;2023-02-19T04:51:38;99560.84;;;9.47;73.94
8069;BME280;4077;43.702;24.896;2023-02-19T04:54:04;99568.34;;;9.35;74.35
8069;BME280;4077;43.702;24.896;2023-02-19T04:56:30;99564.78;;;9.28;75.42
8069;BME280;4077;43.702;24.896;2023-02-19T04:58:56;99554.19;;;9.12;76.69
8069;BME280;4077;43.702;24.896;2023-02-19T05:01:21;99563.59;;;9.10;78.40
8069;BME280;4077;43.702;24.896;2023-02-19T05:03:46;99581.50;;;9.05;79.51
8069;BME280;4077;43.702;24.896;2023-02-19T05:06:12;99559.16;;;9.01;80.31
8069;BME280;4077;43.702;24.896;2023-02-19T05:08:39;99563.38;;;8.99;82.12
8069;BME280;4077;43.702;24.896;2023-02-19T05:11:06;99566.75;;;8.95;83.13
8069;BME280;4077;43.702;24.896;2023-02-19T05:13:32;99560.50;;;8.84;84.57
8069;BME280;4077;43.702;24.896;2023-02-19T05:16:00;99563.03;;;8.79;86.77
8069;BME280;4077;43.702;24.896;2023-02-19T05:18:27;99573.34;;;8.82;87.75
8069;BME280;4077;43.702;24.896;2023-02-19T05:20:53;99577.63;;;8.80;88.15
8069;BME280;4077;43.702;24.896;2023-02-19T05:23:19;99585.41;;;8.85;89.10
8069;BME280;4077;43.702;24.896;2023-02-19T05:25:45;99588.91;;;8.87;89.88
8069;BME280;4077;43.702;24.896;2023-02-19T05:28:11;99593.22;;;8.88;89.82
8069;BME280;4077;43.702;24.896;2023-02-19T05:30:50;99609.81;;;9.03;90.17
8069;BME280;4077;43.702;24.896;2023-02-19T05:33:17;99600.47;;;9.07;89.39
8069;BME280;4077;43.702;24.896;2023-02-19T05:35:49;99616.19;;;9.22;88.15
8069;BME280;4077;43.702;24.896;2023-02-19T05:38:15;99624.88;;;9.27;88.43
8069;BME280;4077;43.702;24.896;2023-02-19T05:40:41;99635.19;;;9.27;88.16
8069;BME280;4077;43.702;24.896;2023-02-19T05:43:07;99638.47;;;9.20;89.87
8069;BME280;4077;43.702;24.896;2023-02-19T05:45:33;99635.06;;;9.21;90.36
8069;BME280;4077;43.702;24.896;2023-02-19T05:47:58;99641.78;;;9.13;92.00
8069;BME280;4077;43.702;24.896;2023-02-19T05:50:24;99632.22;;;9.08;91.38
8069;BME280;4077;43.702;24.896;2023-02-19T05:52:50;99637.41;;;9.09;91.94
8069;BME280;4077;43.702;24.896;2023-02-19T05:55:15;99646.97;;;9.16;92.09
8069;BME280;4077;43.702;24.896;2023-02-19T05:57:42;99652.13;;;9.16;93.69
8069;BME280;4077;43.702;24.896;2023-02-19T06:00:10;99654.09;;;9.28;92.56
8069;BME280;4077;43.702;24.896;2023-02-19T06:02:36;99668.00;;;9.38;93.26
8069;BME280;4077;43.702;24.896;2023-02-19T06:05:02;99683.72;;;9.51;92.45
8069;BME280;4077;43.702;24.896;2023-02-19T06:07:27;99683.91;;;9.62;92.72
8069;BME280;4077;43.702;24.896;2023-02-19T06:09:53;99690.06;;;9.70;90.36
8069;BME280;4077;43.702;24.896;2023-02-19T06:12:18;99682.38;;;9.73;90.81
8069;BME280;4077;43.702;24.896;2023-02-19T06:14:44;99691.09;;;9.80;90.35
8069;BME280;4077;43.702;24.896;2023-02-19T06:17:09;99679.06;;;9.80;90.14
8069;BME280;4077;43.702;24.896;2023-02-19T06:19:35;99683.34;;;9.78;90.63
8069;BME280;4077;43.702;24.896;2023-02-19T06:22:00;99679.91;;;9.79;89.89
8069;BME280;4077;43.702;24.896;2023-02-19T06:24:25;99680.88;;;9.84;90.97
8069;BME280;4077;43.702;24.896;2023-02-19T06:26:51;99672.06;;;9.73;91.74
8069;BME280;4077;43.702;24.896;2023-02-19T06:29:16;99678.16;;;9.77;90.81
8069;BME280;4077;43.702;24.896;2023-02-19T06:31:42;99691.28;;;9.89;90.76
8069;BME280;4077;43.702;24.896;2023-02-19T06:34:08;99689.72;;;9.99;91.00
8069;BME280;4077;43.702;24.896;2023-02-19T06:36:34;99689.75;;;10.02;89.42
8069;BME280;4077;43.702;24.896;2023-02-19T06:39:00;99692.50;;;10.09;88.59
8069;BME280;4077;43.702;24.896;2023-02-19T06:41:25;99689.13;;;10.15;89.27
8069;BME280;4077;43.702;24.896;2023-02-19T06:43:51;99673.63;;;10.15;88.04
8069;BME280;4077;43.702;24.896;2023-02-19T06:46:16;99679.97;;;10.32;87.75
8069;BME280;4077;43.702;24.896;2023-02-19T06:48:43;99689.50;;;10.36;88.36
8069;BME280;4077;43.702;24.896;2023-02-19T06:51:14;99697.38;;;10.46;88.29
8069;BME280;4077;43.702;24.896;2023-02-19T06:53:40;99685.56;;;10.61;85.92
8069;BME280;4077;43.702;24.896;2023-02-19T06:56:26;99708.38;;;11.66;81.03
8069;BME280;4077;43.702;24.896;2023-02-19T06:58:54;99714.75;;;13.15;70.36
8069;BME280;4077;43.702;24.896;2023-02-19T07:01:20;99721.09;;;14.03;64.73
8069;BME280;4077;43.702;24.896;2023-02-19T07:03:46;99729.72;;;15.03;60.27
8069;BME280;4077;43.702;24.896;2023-02-19T07:06:11;99732.84;;;15.81;56.80
8069;BME280;4077;43.702;24.896;2023-02-19T07:08:37;99745.53;;;17.24;52.65
8069;BME280;4077;43.702;24.896;2023-02-19T07:11:02;99752.34;;;18.03;49.55
8069;BME280;4077;43.702;24.896;2023-02-19T07:13:28;99769.13;;;18.44;48.69
8069;BME280;4077;43.702;24.896;2023-02-19T07:15:58;99774.88;;;19.17;47.27
8069;BME280;4077;43.702;24.896;2023-02-19T07:18:24;99763.97;;;18.95;45.81
8069;BME280;4077;43.702;24.896;2023-02-19T07:20:49;99787.91;;;19.65;45.27
8069;BME280;4077;43.702;24.896;2023-02-19T07:23:14;99778.94;;;19.32;44.83
8069;BME280;4077;43.702;24.896;2023-02-19T07:25:40;99765.00;;;18.31;46.61
8069;BME280;4077;43.702;24.896;2023-02-19T07:28:06;99773.97;;;18.15;47.31
8069;BME280;4077;43.702;24.896;2023-02-19T07:30:32;99764.50;;;17.38;48.67
8069;BME280;4077;43.702;24.896;2023-02-19T07:32:57;99759.59;;;17.11;49.47
8069;BME280;4077;43.702;24.896;2023-02-19T07:35:22;99749.81;;;17.28;48.86
8069;BME280;4077;43.702;24.896;2023-02-19T07:37:48;99746.28;;;16.45;50.83
8069;BME280;4077;43.702;24.896;2023-02-19T07:40:13;99749.13;;;16.16;51.38
8069;BME280;4077;43.702;24.896;2023-02-19T07:42:39;99731.09;;;15.83;52.38
8069;BME280;4077;43.702;24.896;2023-02-19T07:45:05;99742.47;;;15.61;53.09
8069;BME280;4077;43.702;24.896;2023-02-19T07:47:30;99724.28;;;15.55;53.22
8069;BME280;4077;43.702;24.896;2023-02-19T07:49:56;99739.13;;;15.31;54.32
8069;BME280;4077;43.702;24.896;2023-02-19T07:52:21;99741.59;;;15.70;53.50
8069;BME280;4077;43.702;24.896;2023-02-19T07:54:46;99748.56;;;15.63;53.88
8069;BME280;4077;43.702;24.896;2023-02-19T07:57:12;99744.97;;;15.87;53.46
8069;BME280;4077;43.702;24.896;2023-02-19T07:59:38;99745.03;;;15.70;54.24
8069;BME280;4077;43.702;24.896;2023-02-19T08:02:07;99740.00;;;15.27;54.50
8069;BME280;4077;43.702;24.896;2023-02-19T08:04:52;99720.97;;;15.15;54.81
8069;BME280;4077;43.702;24.896;2023-02-19T08:07:17;99733.00;;;15.42;54.53
8069;BME280;4077;43.702;24.896;2023-02-19T08:09:42;99732.13;;;15.47;54.88
8069;BME280;4077;43.702;24.896;2023-02-19T08:12:09;99720.00;;;15.45;55.00
8069;BME280;4077;43.702;24.896;2023-02-19T08:14:54;99725.22;;;15.45;54.96
8069;BME280;4077;43.702;24.896;2023-02-19T08:17:19;99719.19;;;15.29;55.12
8069;BME280;4077;43.702;24.896;2023-02-19T08:19:45;99712.25;;;15.32;56.40
8069;BME280;4077;43.702;24.896;2023-02-19T08:22:10;99719.03;;;15.72;55.16
8069;BME280;4077;43.702;24.896;2023-02-19T08:24:36;99733.81;;;15.56;55.13
8069;BME280;4077;43.702;24.896;2023-02-19T08:27:06;99721.69;;;15.50;55.05
8069;BME280;4077;43.702;24.896;2023-02-19T08:29:32;99724.28;;;15.58;54.53
8069;BME280;4077;43.702;24.896;2023-02-19T08:31:59;99727.75;;;15.63;54.79
8069;BME280;4077;43.702;24.896;2023-02-19T08:34:24;99729.38;;;15.82;54.21
8069;BME280;4077;43.702;24.896;2023-02-19T08:36:49;99710.34;;;15.71;53.80
8069;BME280;4077;43.702;24.896;2023-02-19T08:39:15;99731.03;;;15.96;53.43
8069;BME280;4077;43.702;24.896;2023-02-19T08:41:40;99722.25;;;16.10;53.78
8069;BME280;4077;43.702;24.896;2023-02-19T08:44:06;99710.13;;;16.03;53.63
8069;BME280;4077;43.702;24.896;2023-02-19T08:46:31;99709.16;;;16.21;52.75
8069;BME280;4077;43.702;24.896;2023-02-19T08:48:57;99712.75;;;16.06;52.92
8069;BME280;4077;43.702;24.896;2023-02-19T08:51:22;99664.31;;;15.81;52.28
8069;BME280;4077;43.702;24.896;2023-02-19T08:53:48;99715.19;;;16.23;52.25
8069;BME280;4077;43.702;24.896;2023-02-19T08:56:14;99709.16;;;16.17;53.13
8069;BME280;4077;43.702;24.896;2023-02-19T08:58:41;99713.47;;;16.19;52.49
8069;BME280;4077;43.702;24.896;2023-02-19T09:01:11;99708.34;;;16.10;52.14
8069;BME280;4077;43.702;24.896;2023-02-19T09:03:37;99709.16;;;16.17;52.06
8069;BME280;4077;43.702;24.896;2023-02-19T09:06:03;99696.44;;;15.78;52.03
8069;BME280;4077;43.702;24.896;2023-02-19T09:08:28;99680.75;;;15.84;52.30
8069;BME280;4077;43.702;24.896;2023-02-19T09:11:01;99693.59;;;16.13;51.61
8069;BME280;4077;43.702;24.896;2023-02-19T09:13:29;99689.19;;;16.20;51.64
8069;BME280;4077;43.702;24.896;2023-02-19T09:15:54;99682.31;;;16.10;51.42
8069;BME280;4077;43.702;24.896;2023-02-19T09:18:21;99683.47;;;15.72;52.00
8069;BME280;4077;43.702;24.896;2023-02-19T09:20:47;99680.63;;;16.03;51.67
8069;BME280;4077;43.702;24.896;2023-02-19T09:23:13;99690.22;;;15.98;51.61
8069;BME280;4077;43.702;24.896;2023-02-19T09:25:38;99684.28;;;15.80;51.57
8069;BME280;4077;43.702;24.896;2023-02-19T09:28:04;99678.25;;;15.69;51.14
8069;BME280;4077;43.702;24.896;2023-02-19T09:30:29;99679.06;;;15.77;51.63
8069;BME280;4077;43.702;24.896;2023-02-19T09:32:54;99678.13;;;15.92;51.48
8069;BME280;4077;43.702;24.896;2023-02-19T09:35:20;99668.41;;;16.11;51.04
8069;BME280;4077;43.702;24.896;2023-02-19T09:37:45;99672.63;;;16.26;50.91
8069;BME280;4077;43.702;24.896;2023-02-19T09:40:11;99684.50;;;16.57;49.80
8069;BME280;4077;43.702;24.896;2023-02-19T09:42:39;99670.41;;;16.78;49.25
8069;BME280;4077;43.702;24.896;2023-02-19T09:45:05;99676.41;;;16.86;49.42
8069;BME280;4077;43.702;24.896;2023-02-19T09:47:31;99670.91;;;17.11;49.29
8069;BME280;4077;43.702;24.896;2023-02-19T09:50:04;99678.44;;;17.34;48.27
8069;BME280;4077;43.702;24.896;2023-02-19T09:52:44;99678.06;;;16.93;48.55
8069;BME280;4077;43.702;24.896;2023-02-19T09:57:43;99657.00;;;16.27;50.02
8069;BME280;4077;43.702;24.896;2023-02-19T10:00:22;99637.38;;;15.86;50.06
8069;BME280;4077;43.702;24.896;2023-02-19T10:02:53;99652.94;;;15.93;50.00
8069;BME280;4077;43.702;24.896;2023-02-19T10:05:20;99662.50;;;15.94;49.76
8069;BME280;4077;43.702;24.896;2023-02-19T10:07:49;99672.06;;;15.89;49.81
8069;BME280;4077;43.702;24.896;2023-02-19T10:10:27;99659.00;;;15.92;50.08
8069;BME280;4077;43.702;24.896;2023-02-19T10:12:55;99653.88;;;15.82;50.82
8069;BME280;4077;43.702;24.896;2023-02-19T10:15:37;99665.91;;;15.99;49.95
8069;BME280;4077;43.702;24.896;2023-02-19T10:18:04;99632.81;;;16.13;49.29
8069;BME280;4077;43.702;24.896;2023-02-19T10:20:31;99638.63;;;16.39;49.02
8069;BME280;4077;43.702;24.896;2023-02-19T10:23:05;99644.59;;;16.52;49.02
8069;BME280;4077;43.702;24.896;2023-02-19T10:25:32;99638.63;;;16.42;48.45
8069;BME280;4077;43.702;24.896;2023-02-19T10:27:59;99641.91;;;16.60;48.26
8069;BME280;4077;43.702;24.896;2023-02-19T10:30:33;99638.44;;;16.58;47.55
8069;BME280;4077;43.702;24.896;2023-02-19T10:33:13;99631.81;;;16.26;47.87
8069;BME280;4077;43.702;24.896;2023-02-19T10:36:14;99636.28;;;16.13;48.04
8069;BME280;4077;43.702;24.896;2023-02-19T10:38:46;99630.09;;;16.27;47.67
8069;BME280;4077;43.702;24.896;2023-02-19T10:41:18;99641.91;;;16.61;47.94
8069;BME280;4077;43.702;24.896;2023-02-19T10:43:51;99635.09;;;16.47;47.81
8069;BME280;4077;43.702;24.896;2023-02-19T10:46:22;99626.94;;;16.80;47.34
8069;BME280;4077;43.702;24.896;2023-02-19T10:48:56;99622.19;;;17.13;47.89
8069;BME280;4077;43.702;24.896;2023-02-19T10:51:48;99627.94;;;17.38;46.89
8069;BME280;4077;43.702;24.896;2023-02-19T10:54:28;99615.66;;;16.78;47.74
8069;BME280;4077;43.702;24.896;2023-02-19T10:59:53;99570.84;;;16.47;48.45
8069;BME280;4077;43.702;24.896;2023-02-19T11:02:22;99572.53;;;16.47;48.53
8069;BME280;4077;43.702;24.896;2023-02-19T11:07:31;99571.03;;;16.27;48.86
8069;BME280;4077;43.702;24.896;2023-02-19T11:09:58;99593.53;;;16.36;49.31
8069;BME280;4077;43.702;24.896;2023-02-19T11:12:26;99588.09;;;16.56;49.34
8069;BME280;4077;43.702;24.896;2023-02-19T11:14:52;99592.34;;;16.63;48.61
8069;BME280;4077;43.702;24.896;2023-02-19T11:17:26;99589.81;;;16.57;48.88
8069;BME280;4077;43.702;24.896;2023-02-19T11:19:54;99579.19;;;16.77;48.75
8069;BME280;4077;43.702;24.896;2023-02-19T11:22:36;99551.69;;;16.47;48.76
8069;BME280;4077;43.702;24.896;2023-02-19T11:27:31;99582.06;;;16.51;49.16
8069;BME280;4077;43.702;24.896;2023-02-19T11:33:24;99592.03;;;16.92;48.73
8069;BME280;4077;43.702;24.896;2023-02-19T11:38:35;99587.97;;;16.68;48.70
8069;BME280;4077;43.702;24.896;2023-02-19T11:47:02;99590.81;;;17.19;48.63
8069;BME280;4077;43.702;24.896;2023-02-19T11:49:52;99590.88;;;17.16;49.25
8069;BME280;4077;43.702;24.896;2023-02-19T11:52:41;99578.88;;;17.01;49.37
8069;BME280;4077;43.702;24.896;2023-02-19T12:01:41;99556.16;;;17.11;49.67
8069;BME280;4077;43.702;24.896;2023-02-19T12:09:57;99532.09;;;16.87;49.93
8069;BME280;4077;43.702;24.896;2023-02-19T12:13:26;99524.44;;;16.77;49.53
8069;BME280;4077;43.702;24.896;2023-02-19T12:15:45;99536.44;;;16.90;49.96
8069;BME280;4077;43.702;24.896;2023-02-19T12:18:28;99526.94;;;16.84;49.87
8069;BME280;4077;43.702;24.896;2023-02-19T12:21:25;99528.75;;;16.79;50.13
8069;BME280;4077;43.702;24.896;2023-02-19T12:24:19;99525.06;;;16.95;49.87
8069;BME280;4077;43.702;24.896;2023-02-19T12:35:42;99497.59;;;16.70;50.90
8069;BME280;4077;43.702;24.896;2023-02-19T12:38:21;99477.88;;;16.49;51.06
8069;BME280;4077;43.702;24.896;2023-02-19T12:41:10;99482.22;;;16.49;50.98
8069;BME280;4077;43.702;24.896;2023-02-19T12:43:44;99477.09;;;16.39;50.64
8069;BME280;4077;43.702;24.896;2023-02-19T12:46:18;99478.91;;;16.34;51.39
8069;BME280;4077;43.702;24.896;2023-02-19T12:48:55;99484.88;;;16.44;51.24
8069;BME280;4077;43.702;24.896;2023-02-19T12:51:40;99460.69;;;16.33;51.05
8069;BME280;4077;43.702;24.896;2023-02-19T12:54:26;99461.59;;;16.30;51.22
8069;BME280;4077;43.702;24.896;2023-02-19T12:57:01;99473.66;;;16.37;51.54
8069;BME280;4077;43.702;24.896;2023-02-19T13:07:57;99468.75;;;16.82;51.33
8069;BME280;4077;43.702;24.896;2023-02-19T13:13:08;99449.59;;;16.85;50.43
8069;BME280;4077;43.702;24.896;2023-02-19T13:15:39;99464.25;;;16.93;50.22
8069;BME280;4077;43.702;24.896;2023-02-19T13:18:31;99453.88;;;16.87;50.20
8069;BME280;4077;43.702;24.896;2023-02-19T13:20:59;99457.53;;;16.77;50.15
8069;BME280;4077;43.702;24.896;2023-02-19T13:23:32;99449.75;;;16.76;50.30
8069;BME280;4077;43.702;24.896;2023-02-19T13:34:45;99474.75;;;16.89;49.82
8069;BME280;4077;43.702;24.896;2023-02-19T13:37:13;99471.28;;;16.88;49.96
8069;BME280;4077;43.702;24.896;2023-02-19T13:39:48;99454.03;;;16.78;49.54
8069;BME280;4077;43.702;24.896;2023-02-19T13:42:33;99457.47;;;16.80;49.94
8069;BME280;4077;43.702;24.896;2023-02-19T13:45:00;99455.53;;;16.94;50.17
8069;BME280;4077;43.702;24.896;2023-02-19T13:47:58;99464.13;;;17.03;49.86
8069;BME280;4077;43.702;24.896;2023-02-19T13:50:25;99453.72;;;17.00;49.94
8069;BME280;4077;43.702;24.896;2023-02-19T13:52:52;99449.34;;;17.00;49.66
8069;BME280;4077;43.702;24.896;2023-02-19T14:01:04;99450.09;;;17.10;49.71
8069;BME280;4077;43.702;24.896;2023-02-19T14:06:09;99449.16;;;17.14;49.49
8069;BME280;4077;43.702;24.896;2023-02-19T14:08:56;99450.00;;;17.16;49.84
8069;BME280;4077;43.702;24.896;2023-02-19T14:12:02;99435.28;;;17.12;50.18
8069;BME280;4077;43.702;24.896;2023-02-19T14:14:41;99429.31;;;17.04;50.30
8069;BME280;4077;43.702;24.896;2023-02-19T14:20:38;99417.84;;;17.14;49.89
8069;BME280;4077;43.702;24.896;2023-02-19T14:22:58;99417.13;;;17.06;49.41
8069;BME280;4077;43.702;24.896;2023-02-19T14:30:30;99427.81;;;16.89;49.81
8069;BME280;4077;43.702;24.896;2023-02-19T14:32:56;99427.09;;;16.79;50.17
8069;BME280;4077;43.702;24.896;2023-02-19T14:35:29;99423.53;;;16.85;50.30
8069;BME280;4077;43.702;24.896;2023-02-19T14:37:56;99414.06;;;16.78;50.36
8069;BME280;4077;43.702;24.896;2023-02-19T14:40:27;99417.47;;;16.84;50.58
8069;BME280;4077;43.702;24.896;2023-02-19T14:42:55;99407.13;;;16.78;50.39
8069;BME280;4077;43.702;24.896;2023-02-19T14:45:22;99407.81;;;16.88;50.38
8069;BME280;4077;43.702;24.896;2023-02-19T14:47:49;99394.78;;;16.89;50.61
8069;BME280;4077;43.702;24.896;2023-02-19T14:50:25;99381.03;;;16.78;50.86
8069;BME280;4077;43.702;24.896;2023-02-19T14:52:54;99376.06;;;16.60;50.83
8069;BME280;4077;43.702;24.896;2023-02-19T14:55:38;99383.88;;;16.60;50.88
8069;BME280;4077;43.702;24.896;2023-02-19T14:58:12;99396.13;;;16.56;51.33
8069;BME280;4077;43.702;24.896;2023-02-19T15:00:40;99372.09;;;16.33;51.43
8069;BME280;4077;43.702;24.896;2023-02-19T15:05:58;99389.47;;;16.35;51.26
8069;BME280;4077;43.702;24.896;2023-02-19T15:08:32;99382.66;;;16.27;51.53
8069;BME280;4077;43.702;24.896;2023-02-19T15:11:00;99389.63;;;16.23;51.48
8069;BME280;4077;43.702;24.896;2023-02-19T15:13:28;99381.97;;;16.11;51.67
8069;BME280;4077;43.702;24.896;2023-02-19T15:15:55;99383.81;;;16.03;52.07
8069;BME280;4077;43.702;24.896;2023-02-19T15:18:23;99377.13;;;15.80;52.40
8069;BME280;4077;43.702;24.896;2023-02-19T15:20:50;99392.63;;;15.90;52.80